Cambridge, United Kingdom

8:57 PM BST on July 07, 2015 (GMT +0100)
ICAMBRID5 | | Change Station
CLOSE
Current Station
Personal Weather Station
Location: Cambridge, UK
Elevation: 50 ft
Nearby Weather Stations

Elev 50 ft 52.23 °N, 0.13 °E | Updated 12 minutes ago

Clear
Clear
65.5 °F
Feels Like 65.5 °F
N
6.3
Wind Variable Wind from SSW
Gusts 12.8 mph

Today
High -- | Low -- °F
--% Chance of Precip.
Yesterday
High -- | Low -- °F
Precip. -- in
4:47 AM 9:20 PM
Waning Gibbous, 62% visible
Pressure 29.74 in
Visibility -9999.0 miles
Clouds
Dew Point 42 °F
Humidity 42%
Rainfall 0.04 in
Snow Depth Not available.
UV Not available.
Pollen Not available.
Air Quality Not available.
Flu Activity Not available.
METAR EGSS 071950Z 26010KT CAVOK 17/08 Q1007

More Conditions Fewer Conditions

Pressure 29.74 in
Visibility -9999.0 miles
Clouds
Dew Point 42 °F
Humidity 42%
Rainfall 0.04 in
Snow Depth Not available.
UV Not available.
Pollen Not available.
Air Quality Not available.
Flu Activity Not available.
METAR EGSS 071950Z 26010KT CAVOK 17/08 Q1007

More Conditions Fewer Conditions

10-Day Weather Forecast

×

Almanac

Astronomy

Jul. 07, 2015 Rise Set
Actual Time
Civil Twilight
Nautical Twilight
Astronomical Twilight
Moon
Length of Visible Light
Length of Day
Tomorrow will be .
, % of the Moon is Illuminated

Today's Extremes

Country Highs Country Lows

Community

WunderPhotos

Upload Photos

1,835,884 photos uploaded!

WunderBlogs® & News

Nearby

Air Quality

  Air Quality AQ Index Pollutant
Not available.

Snow Depth

Station Depth Elevation

Earthquake Activity

City Distance Mag. Time & Date
Minimum magnitude displayed is 2.5.

Coastal Water Temperatures

Place Temperature

Stations

Nearby Weather Stations

Station Location Temp. Windchill Dew Point Humidity Wind Precip. Elev Updated Type